Time;durP1;ratioP1;P1;durP2;ratioP2;P2;SDS_P1;SDS_P2;PMS_P1;PMS_P2;Temp;Humidity;BMP_temperature;BMP_pressure;BME280_temperature;BME280_humidity;BME280_pressure;Samples;Min_cycle;Max_cycle;Signal;HPM_P1;HPM_P2
2023/08/09 00:00:47;;;;;;;4.70;2.08;;;;;;;;;;5073766;28;20045;-84
2023/08/09 00:03:12;;;;;;;8.00;2.22;;;;;;;;;;5094168;28;20078;-83
2023/08/09 00:05:37;;;;;;;4.40;2.28;;;;;;;;;;5080607;28;20040;-84
2023/08/09 00:08:03;;;;;;;5.22;2.42;;;;;;;;;;5073932;28;20510;-84
2023/08/09 00:10:28;;;;;;;6.30;2.20;;;;;;;;;;5080741;28;20036;-84
2023/08/09 00:12:54;;;;;;;6.43;2.25;;;;;;;;;;5089942;28;20059;-84
2023/08/09 00:15:19;;;;;;;8.45;2.40;;;;;;;;;;5067797;28;20032;-84
2023/08/09 00:17:45;;;;;;;8.10;2.30;;;;;;;;;;5077327;28;20072;-83
2023/08/09 00:20:13;;;;;;;5.55;2.03;;;;;;;;;;5074636;28;20033;-84
2023/08/09 00:22:39;;;;;;;5.25;2.33;;;;;;;;;;5076113;28;20499;-83
2023/08/09 00:25:05;;;;;;;5.43;2.17;;;;;;;;;;5086421;28;20036;-84
2023/08/09 00:27:31;;;;;;;5.63;2.55;;;;;;;;;;5086855;28;20034;-84
2023/08/09 00:29:56;;;;;;;5.35;2.30;;;;;;;;;;5057580;28;20111;-83
2023/08/09 00:32:21;;;;;;;5.35;2.30;;;;;;;;;;5086936;28;20024;-84
2023/08/09 00:34:47;;;;;;;7.78;2.25;;;;;;;;;;5074172;28;20037;-84
2023/08/09 00:37:13;;;;;;;4.63;2.25;;;;;;;;;;5073999;28;20035;-84
2023/08/09 00:39:38;;;;;;;6.05;2.22;;;;;;;;;;5075434;28;20070;-84
2023/08/09 00:42:04;;;;;;;5.93;2.28;;;;;;;;;;5086552;28;20024;-84
2023/08/09 00:44:29;;;;;;;12.80;2.55;;;;;;;;;;5093140;28;20407;-84
2023/08/09 00:46:55;;;;;;;4.35;2.17;;;;;;;;;;5080021;28;20033;-85
2023/08/09 00:49:20;;;;;;;5.95;2.55;;;;;;;;;;5092712;28;20058;-85
2023/08/09 00:51:46;;;;;;;7.28;2.72;;;;;;;;;;5079066;28;20021;-84
2023/08/09 00:54:12;;;;;;;4.50;2.17;;;;;;;;;;5079359;28;20127;-84
2023/08/09 00:56:37;;;;;;;4.38;2.00;;;;;;;;;;5075051;28;20111;-83
2023/08/09 00:59:03;;;;;;;3.88;1.90;;;;;;;;;;5074715;28;20036;-83
2023/08/09 01:01:28;;;;;;;4.10;2.38;;;;;;;;;;5073764;28;20024;-84
2023/08/09 01:03:54;;;;;;;5.97;2.20;;;;;;;;;;5073481;28;20067;-84
2023/08/09 01:06:49;;;;;;;4.90;2.05;;;;;;;;;;5073343;28;20052;-84
2023/08/09 01:09:21;;;;;;;4.50;2.05;;;;;;;;;;5065954;28;20418;-82
2023/08/09 01:11:53;;;;;;;6.97;2.20;;;;;;;;;;5059412;28;20127;-83
2023/08/09 01:14:20;;;;;;;6.75;2.55;;;;;;;;;;5074718;28;20094;-83
2023/08/09 01:16:46;;;;;;;4.10;2.00;;;;;;;;;;5057726;28;20032;-82
2023/08/09 01:19:17;;;;;;;5.43;2.28;;;;;;;;;;5057670;28;20047;-83
2023/08/09 01:21:43;;;;;;;5.75;2.58;;;;;;;;;;5075006;28;20032;-84
2023/08/09 01:24:08;;;;;;;4.63;2.38;;;;;;;;;;5073478;28;20039;-83
2023/08/09 01:26:38;;;;;;;5.13;2.70;;;;;;;;;;5074041;28;20031;-84
2023/08/09 01:29:03;;;;;;;4.68;2.70;;;;;;;;;;5057076;28;20024;-84
2023/08/09 01:31:28;;;;;;;6.80;2.78;;;;;;;;;;5065129;28;20110;-84
2023/08/09 01:33:54;;;;;;;7.32;3.35;;;;;;;;;;5054778;28;20144;-83
2023/08/09 01:36:21;;;;;;;5.95;2.83;;;;;;;;;;5065255;28;20539;-84
2023/08/09 01:38:49;;;;;;;6.78;2.85;;;;;;;;;;5063602;28;20029;-84
2023/08/09 01:41:15;;;;;;;6.55;2.83;;;;;;;;;;5073884;28;20039;-83
2023/08/09 01:43:41;;;;;;;8.35;3.05;;;;;;;;;;5063915;28;20483;-82
2023/08/09 01:46:06;;;;;;;6.05;2.97;;;;;;;;;;5056264;28;20044;-84
2023/08/09 01:48:32;;;;;;;9.68;3.15;;;;;;;;;;5052660;28;20024;-83
2023/08/09 01:50:58;;;;;;;7.05;2.50;;;;;;;;;;5064754;28;20035;-82
2023/08/09 01:53:23;;;;;;;5.63;2.70;;;;;;;;;;5088236;28;20012;-82
2023/08/09 01:55:49;;;;;;;7.20;2.50;;;;;;;;;;5080425;28;20044;-83
2023/08/09 01:58:14;;;;;;;10.45;2.42;;;;;;;;;;5067984;28;20028;-83
2023/08/09 02:00:40;;;;;;;5.95;2.70;;;;;;;;;;5065807;28;20075;-83
2023/08/09 02:03:06;;;;;;;5.30;2.58;;;;;;;;;;5061408;28;20032;-83
2023/08/09 02:05:32;;;;;;;6.00;2.40;;;;;;;;;;5077665;28;20380;-82
2023/08/09 02:07:57;;;;;;;5.22;2.90;;;;;;;;;;5072280;28;20080;-82
2023/08/09 02:10:23;;;;;;;6.57;2.60;;;;;;;;;;5058808;28;20122;-83
2023/08/09 02:12:48;;;;;;;9.27;2.60;;;;;;;;;;5072904;28;20127;-83
2023/08/09 02:15:18;;;;;;;6.60;2.65;;;;;;;;;;5080960;28;20044;-84
2023/08/09 02:17:44;;;;;;;5.15;2.10;;;;;;;;;;5076684;28;20513;-85
2023/08/09 02:20:10;;;;;;;8.18;2.50;;;;;;;;;;5071248;28;20040;-82
2023/08/09 02:22:36;;;;;;;5.72;2.47;;;;;;;;;;5071792;28;20368;-83
2023/08/09 02:25:02;;;;;;;5.72;2.70;;;;;;;;;;5075302;28;20502;-83
2023/08/09 02:27:28;;;;;;;5.40;2.45;;;;;;;;;;5060830;28;20102;-82
2023/08/09 02:29:55;;;;;;;6.32;2.30;;;;;;;;;;5057486;28;20113;-83
2023/08/09 02:32:21;;;;;;;9.00;2.72;;;;;;;;;;5071737;28;20027;-83
2023/08/09 02:34:46;;;;;;;5.43;2.63;;;;;;;;;;5067216;28;20036;-83
2023/08/09 02:37:12;;;;;;;6.20;2.28;;;;;;;;;;5072627;28;20038;-83
2023/08/09 02:39:37;;;;;;;6.68;2.50;;;;;;;;;;5066753;28;20041;-83
2023/08/09 02:42:03;;;;;;;7.20;2.63;;;;;;;;;;5080620;28;20023;-83
2023/08/09 02:44:32;;;;;;;7.68;2.47;;;;;;;;;;5085019;28;20078;-83
2023/08/09 02:46:59;;;;;;;9.32;2.55;;;;;;;;;;5072994;28;20025;-84
2023/08/09 02:49:24;;;;;;;5.80;2.60;;;;;;;;;;5072880;28;20487;-84
2023/08/09 02:51:50;;;;;;;5.28;2.40;;;;;;;;;;5072141;28;20059;-83
2023/08/09 02:54:15;;;;;;;5.65;2.20;;;;;;;;;;5062765;28;20528;-83
2023/08/09 02:56:40;;;;;;;8.45;2.83;;;;;;;;;;5068561;28;20020;-83
2023/08/09 02:59:06;;;;;;;5.50;2.50;;;;;;;;;;5054864;28;20047;-82
2023/08/09 03:01:33;;;;;;;7.72;2.47;;;;;;;;;;5054685;28;20058;-84
2023/08/09 03:03:59;;;;;;;4.50;2.45;;;;;;;;;;5070931;28;20040;-83
2023/08/09 03:06:24;;;;;;;4.53;2.20;;;;;;;;;;5060331;28;20020;-84
2023/08/09 03:08:50;;;;;;;7.63;2.42;;;;;;;;;;5076209;28;20028;-83
2023/08/09 03:11:20;;;;;;;6.30;3.00;;;;;;;;;;5054599;28;20369;-83
2023/08/09 03:13:46;;;;;;;4.93;2.30;;;;;;;;;;5073598;28;20052;-83
2023/08/09 03:16:12;;;;;;;9.25;2.65;;;;;;;;;;5073117;28;20499;-83
2023/08/09 03:18:39;;;;;;;3.67;2.50;;;;;;;;;;5071626;28;20032;-83
2023/08/09 03:21:04;;;;;;;6.82;2.47;;;;;;;;;;5071811;28;20047;-83
2023/08/09 03:23:30;;;;;;;5.55;2.40;;;;;;;;;;5043112;28;20539;-83
2023/08/09 03:25:56;;;;;;;6.85;2.78;;;;;;;;;;5055349;28;20029;-83
2023/08/09 03:28:22;;;;;;;5.88;2.47;;;;;;;;;;5071522;28;20086;-83
2023/08/09 03:30:48;;;;;;;6.63;2.80;;;;;;;;;;5069647;28;20036;-83
2023/08/09 03:33:14;;;;;;;5.00;2.30;;;;;;;;;;5063459;28;20025;-84
2023/08/09 03:35:41;;;;;;;5.95;2.45;;;;;;;;;;5074670;28;20536;-83
2023/08/09 03:38:06;;;;;;;5.72;2.28;;;;;;;;;;5076473;28;20056;-83
2023/08/09 03:40:32;;;;;;;5.53;2.42;;;;;;;;;;5074422;28;20020;-83
2023/08/09 03:42:58;;;;;;;6.90;2.78;;;;;;;;;;5064392;28;20063;-83
2023/08/09 03:45:23;;;;;;;6.07;2.67;;;;;;;;;;5073835;28;20041;-83
2023/08/09 03:47:50;;;;;;;9.73;2.60;;;;;;;;;;5059759;28;20032;-83
2023/08/09 03:50:16;;;;;;;7.43;2.90;;;;;;;;;;5065893;28;20021;-84
2023/08/09 03:52:42;;;;;;;4.68;3.05;;;;;;;;;;5071988;28;20105;-82
2023/08/09 03:55:08;;;;;;;6.28;2.50;;;;;;;;;;5036590;28;20060;-83
2023/08/09 03:57:33;;;;;;;4.15;2.33;;;;;;;;;;5046415;28;20430;-82
2023/08/09 03:59:59;;;;;;;4.18;2.50;;;;;;;;;;5075113;28;20032;-82
2023/08/09 04:02:24;;;;;;;3.88;2.25;;;;;;;;;;5074500;28;20495;-82
2023/08/09 04:04:50;;;;;;;4.10;2.47;;;;;;;;;;5069290;28;20065;-83
2023/08/09 04:07:15;;;;;;;4.40;2.30;;;;;;;;;;5062488;28;20030;-82
2023/08/09 04:09:41;;;;;;;4.70;2.50;;;;;;;;;;5066932;28;20024;-82
2023/08/09 04:12:06;;;;;;;7.53;2.75;;;;;;;;;;5057805;28;20449;-82
2023/08/09 04:14:32;;;;;;;5.97;2.38;;;;;;;;;;5073900;28;20167;-83
2023/08/09 04:16:57;;;;;;;4.65;2.60;;;;;;;;;;5068030;28;20522;-82
2023/08/09 04:19:24;;;;;;;7.85;2.22;;;;;;;;;;5076047;28;20046;-81
2023/08/09 04:21:50;;;;;;;5.88;2.72;;;;;;;;;;5044528;28;20480;-81
2023/08/09 04:24:16;;;;;;;5.45;2.40;;;;;;;;;;5074234;28;20089;-81
2023/08/09 04:26:42;;;;;;;5.43;2.20;;;;;;;;;;5075644;28;20095;-82
2023/08/09 04:29:07;;;;;;;11.13;2.70;;;;;;;;;;5059493;28;20529;-82
2023/08/09 04:31:33;;;;;;;5.13;2.30;;;;;;;;;;5076607;28;20017;-81
2023/08/09 04:33:59;;;;;;;3.90;2.30;;;;;;;;;;5076406;28;20406;-81
2023/08/09 04:36:28;;;;;;;6.45;2.67;;;;;;;;;;5074176;28;20024;-81
2023/08/09 04:38:54;;;;;;;3.05;2.20;;;;;;;;;;5060832;28;20051;-81
2023/08/09 04:41:19;;;;;;;4.82;2.38;;;;;;;;;;5069712;28;20035;-82
2023/08/09 04:43:46;;;;;;;3.47;2.22;;;;;;;;;;5072534;28;20048;-82
2023/08/09 04:46:12;;;;;;;4.13;2.65;;;;;;;;;;5080943;28;20149;-82
2023/08/09 04:48:38;;;;;;;6.32;2.40;;;;;;;;;;5082045;28;20545;-81
2023/08/09 04:51:04;;;;;;;5.47;2.30;;;;;;;;;;5079880;28;20078;-83
2023/08/09 04:53:29;;;;;;;4.63;2.13;;;;;;;;;;5061454;28;20033;-79
2023/08/09 04:55:55;;;;;;;5.65;2.50;;;;;;;;;;5074820;28;20099;-80
2023/08/09 04:58:21;;;;;;;8.32;2.10;;;;;;;;;;5075261;28;20098;-80
2023/08/09 05:00:46;;;;;;;6.68;2.05;;;;;;;;;;5077807;28;20056;-81
2023/08/09 05:03:11;;;;;;;4.97;2.35;;;;;;;;;;5075127;28;20111;-81
2023/08/09 05:05:37;;;;;;;6.13;2.35;;;;;;;;;;5073377;28;20042;-81
2023/08/09 05:08:03;;;;;;;4.43;2.00;;;;;;;;;;5075052;28;20063;-81
2023/08/09 05:10:28;;;;;;;10.10;2.33;;;;;;;;;;5071436;28;20132;-80
2023/08/09 05:12:54;;;;;;;5.28;2.20;;;;;;;;;;5074412;28;20102;-81
2023/08/09 05:15:19;;;;;;;4.63;2.40;;;;;;;;;;5074662;28;20036;-81
2023/08/09 05:17:45;;;;;;;9.45;2.30;;;;;;;;;;5076595;28;20063;-80
2023/08/09 05:20:11;;;;;;;3.38;1.90;;;;;;;;;;5075593;28;20100;-81
2023/08/09 05:22:36;;;;;;;6.05;2.10;;;;;;;;;;5058671;28;20024;-81
2023/08/09 05:25:02;;;;;;;5.47;2.10;;;;;;;;;;5076654;28;20060;-80
2023/08/09 05:27:27;;;;;;;8.65;2.70;;;;;;;;;;5074364;28;20078;-81
2023/08/09 05:29:53;;;;;;;6.68;1.83;;;;;;;;;;5057264;28;20025;-81
2023/08/09 05:32:18;;;;;;;4.78;1.90;;;;;;;;;;5074387;28;20054;-82
2023/08/09 05:34:44;;;;;;;6.30;1.80;;;;;;;;;;5073273;28;20106;-81
2023/08/09 05:37:10;;;;;;;4.38;1.85;;;;;;;;;;5073657;28;20048;-82
2023/08/09 05:39:35;;;;;;;6.70;1.83;;;;;;;;;;5076705;28;20032;-82
2023/08/09 05:42:01;;;;;;;4.40;1.60;;;;;;;;;;5081501;28;20028;-82
2023/08/09 05:44:26;;;;;;;6.75;1.65;;;;;;;;;;5057680;28;20041;-81
2023/08/09 05:46:52;;;;;;;5.63;1.90;;;;;;;;;;5076717;28;20024;-82
2023/08/09 05:49:17;;;;;;;2.47;1.40;;;;;;;;;;5079486;28;20056;-82
2023/08/09 05:51:43;;;;;;;4.28;1.52;;;;;;;;;;5071693;28;20393;-81
2023/08/09 05:54:09;;;;;;;3.55;1.38;;;;;;;;;;5080651;28;20074;-83
2023/08/09 05:56:34;;;;;;;5.15;1.55;;;;;;;;;;5074304;28;20483;-82
2023/08/09 05:59:00;;;;;;;2.47;1.35;;;;;;;;;;5080493;28;20395;-80
2023/08/09 06:01:25;;;;;;;3.78;1.52;;;;;;;;;;5080556;28;20047;-81
2023/08/09 06:03:51;;;;;;;5.53;1.50;;;;;;;;;;5073391;28;20036;-81
2023/08/09 06:06:16;;;;;;;3.10;1.40;;;;;;;;;;5080705;28;20067;-81
2023/08/09 06:08:42;;;;;;;6.60;1.67;;;;;;;;;;5068768;28;20029;-81
2023/08/09 06:11:08;;;;;;;5.72;1.77;;;;;;;;;;5091240;28;20032;-81
2023/08/09 06:13:34;;;;;;;5.72;1.65;;;;;;;;;;5075628;28;20056;-81
2023/08/09 06:15:59;;;;;;;3.53;1.50;;;;;;;;;;5082505;28;20032;-81
2023/08/09 06:18:25;;;;;;;5.28;1.63;;;;;;;;;;5084194;28;20158;-81
2023/08/09 06:20:50;;;;;;;4.72;1.50;;;;;;;;;;5082701;28;20028;-81
2023/08/09 06:23:16;;;;;;;3.95;1.60;;;;;;;;;;5038577;28;20027;-81
2023/08/09 06:25:41;;;;;;;3.97;1.40;;;;;;;;;;5083913;28;20060;-81
2023/08/09 06:28:07;;;;;;;3.08;1.10;;;;;;;;;;5071929;28;20040;-82
2023/08/09 06:30:33;;;;;;;1.77;1.05;;;;;;;;;;5082060;28;20085;-81
2023/08/09 06:32:58;;;;;;;7.05;1.42;;;;;;;;;;5071972;28;20023;-81
2023/08/09 06:35:23;;;;;;;6.57;1.50;;;;;;;;;;5088509;28;20056;-82
2023/08/09 06:37:49;;;;;;;6.05;1.63;;;;;;;;;;5085598;28;20028;-81
2023/08/09 06:40:18;;;;;;;5.68;1.60;;;;;;;;;;5086752;28;20411;-82
2023/08/09 06:42:43;;;;;;;4.90;1.73;;;;;;;;;;5072041;28;20032;-81
2023/08/09 06:45:12;;;;;;;5.88;1.88;;;;;;;;;;5071789;28;20040;-82
2023/08/09 06:47:37;;;;;;;3.72;1.52;;;;;;;;;;5053678;28;20024;-80
2023/08/09 06:50:04;;;;;;;4.20;1.77;;;;;;;;;;5080983;28;20531;-81
2023/08/09 06:52:30;;;;;;;3.63;1.60;;;;;;;;;;5076964;28;20429;-81
2023/08/09 06:54:56;;;;;;;4.50;2.03;;;;;;;;;;5079974;28;20067;-81
2023/08/09 06:57:21;;;;;;;5.80;2.00;;;;;;;;;;5075357;28;20385;-81
2023/08/09 06:59:47;;;;;;;3.33;1.70;;;;;;;;;;5073302;28;20502;-81
2023/08/09 07:02:12;;;;;;;5.63;2.08;;;;;;;;;;5055828;28;20033;-81
2023/08/09 07:04:38;;;;;;;5.28;1.90;;;;;;;;;;5056177;28;20086;-81
2023/08/09 07:07:05;;;;;;;4.03;1.98;;;;;;;;;;5072361;28;20120;-81
2023/08/09 07:09:30;;;;;;;5.97;1.88;;;;;;;;;;5071796;28;20115;-81
2023/08/09 07:11:57;;;;;;;4.85;1.70;;;;;;;;;;5074577;28;20074;-80
2023/08/09 07:14:23;;;;;;;6.78;1.65;;;;;;;;;;5051612;28;20056;-81
2023/08/09 07:16:49;;;;;;;3.78;1.70;;;;;;;;;;5076620;28;20483;-79
2023/08/09 07:19:15;;;;;;;7.70;1.70;;;;;;;;;;5071623;28;20111;-81
2023/08/09 07:21:40;;;;;;;4.18;1.70;;;;;;;;;;5075881;28;20070;-81
2023/08/09 07:24:06;;;;;;;3.75;1.45;;;;;;;;;;5077622;28;20037;-82
2023/08/09 07:26:31;;;;;;;4.57;1.58;;;;;;;;;;5081736;28;20059;-81
2023/08/09 07:28:57;;;;;;;3.30;1.40;;;;;;;;;;5072039;28;20127;-81
2023/08/09 07:31:23;;;;;;;5.97;1.67;;;;;;;;;;5075296;28;20070;-81
2023/08/09 07:33:48;;;;;;;5.70;1.50;;;;;;;;;;5074291;28;20032;-81
2023/08/09 07:36:14;;;;;;;4.30;1.42;;;;;;;;;;5072956;28;20033;-81
2023/08/09 07:38:39;;;;;;;6.00;1.77;;;;;;;;;;5073524;28;20028;-81
2023/08/09 07:41:05;;;;;;;3.42;1.70;;;;;;;;;;5072760;28;20040;-81
2023/08/09 07:43:31;;;;;;;4.28;1.73;;;;;;;;;;5071012;28;20032;-81
2023/08/09 07:45:56;;;;;;;3.15;1.48;;;;;;;;;;5052725;28;20532;-81
2023/08/09 07:48:22;;;;;;;3.58;1.40;;;;;;;;;;5072941;28;20150;-81
2023/08/09 07:50:47;;;;;;;4.95;1.63;;;;;;;;;;5070958;28;20032;-81
2023/08/09 07:53:13;;;;;;;3.97;1.25;;;;;;;;;;5082022;28;20111;-82
2023/08/09 07:55:39;;;;;;;5.60;1.52;;;;;;;;;;5077355;28;20028;-81
2023/08/09 07:58:05;;;;;;;5.82;1.55;;;;;;;;;;5090135;28;20117;-82
2023/08/09 08:00:30;;;;;;;3.10;1.40;;;;;;;;;;5078084;28;20028;-82
2023/08/09 08:02:56;;;;;;;2.95;1.33;;;;;;;;;;5090304;28;20042;-81
2023/08/09 08:05:21;;;;;;;5.65;1.50;;;;;;;;;;5071559;28;20020;-81
2023/08/09 08:07:46;;;;;;;2.30;1.30;;;;;;;;;;5080473;28;20617;-82
2023/08/09 08:10:14;;;;;;;3.30;1.33;;;;;;;;;;5075936;28;20031;-81
2023/08/09 08:12:39;;;;;;;6.50;1.48;;;;;;;;;;5089798;28;20032;-82
2023/08/09 08:15:06;;;;;;;3.42;1.30;;;;;;;;;;5071891;28;20036;-81
2023/08/09 08:17:32;;;;;;;6.45;1.45;;;;;;;;;;5083248;28;20043;-81
2023/08/09 08:19:57;;;;;;;3.95;1.60;;;;;;;;;;5070907;28;20032;-81
2023/08/09 08:22:23;;;;;;;5.70;1.50;;;;;;;;;;5074394;28;20090;-81
2023/08/09 08:24:48;;;;;;;5.47;1.50;;;;;;;;;;5077957;28;20027;-80
2023/08/09 08:27:14;;;;;;;3.78;1.40;;;;;;;;;;5065744;28;20078;-80
2023/08/09 08:29:40;;;;;;;5.57;1.55;;;;;;;;;;5087742;28;20441;-81
2023/08/09 08:32:05;;;;;;;3.22;1.25;;;;;;;;;;5084022;28;20535;-80
2023/08/09 08:34:31;;;;;;;3.50;1.30;;;;;;;;;;5091033;28;21221;-81
2023/08/09 08:36:57;;;;;;;5.30;1.40;;;;;;;;;;5093397;28;20086;-82
2023/08/09 08:39:23;;;;;;;1.63;1.17;;;;;;;;;;5088014;28;20016;-82
2023/08/09 08:41:50;;;;;;;4.00;1.20;;;;;;;;;;5075742;28;20055;-81
2023/08/09 08:44:15;;;;;;;2.25;1.23;;;;;;;;;;5086213;28;20058;-83
2023/08/09 08:46:41;;;;;;;2.72;1.20;;;;;;;;;;5074156;28;20036;-82
2023/08/09 08:49:08;;;;;;;6.30;1.35;;;;;;;;;;5085725;28;20058;-82
2023/08/09 08:51:33;;;;;;;3.63;1.20;;;;;;;;;;5083107;28;20066;-81
2023/08/09 08:53:59;;;;;;;1.95;1.02;;;;;;;;;;5086063;28;20032;-80
2023/08/09 08:56:25;;;;;;;2.05;1.17;;;;;;;;;;5085149;28;20036;-82
2023/08/09 08:58:50;;;;;;;2.80;1.00;;;;;;;;;;5080287;28;20483;-81
2023/08/09 09:01:16;;;;;;;2.25;1.08;;;;;;;;;;5075337;28;20044;-80
2023/08/09 09:03:42;;;;;;;2.92;1.20;;;;;;;;;;5068926;28;20115;-80
2023/08/09 09:06:07;;;;;;;2.92;1.20;;;;;;;;;;5085438;28;20052;-81
2023/08/09 09:08:40;;;;;;;2.53;1.15;;;;;;;;;;5090954;28;20020;-81
2023/08/09 09:11:13;;;;;;;5.38;1.42;;;;;;;;;;5074880;28;20032;-82
2023/08/09 09:13:39;;;;;;;5.22;1.20;;;;;;;;;;5077766;28;20395;-81
2023/08/09 09:16:05;;;;;;;2.85;1.27;;;;;;;;;;5080330;28;20043;-79
2023/08/09 09:18:30;;;;;;;2.40;1.20;;;;;;;;;;5091162;28;20032;-79
2023/08/09 09:20:56;;;;;;;2.95;1.30;;;;;;;;;;5078851;28;20025;-82
2023/08/09 09:23:28;;;;;;;4.97;1.10;;;;;;;;;;5085204;28;20037;-81
2023/08/09 09:26:05;;;;;;;3.10;1.20;;;;;;;;;;5073117;28;20035;-82
2023/08/09 09:28:36;;;;;;;3.20;1.40;;;;;;;;;;5062504;28;20029;-82
2023/08/09 09:31:01;;;;;;;4.95;1.50;;;;;;;;;;5069788;28;20431;-82
2023/08/09 09:33:33;;;;;;;6.13;1.75;;;;;;;;;;5091549;28;20188;-82
2023/08/09 09:35:59;;;;;;;3.38;1.23;;;;;;;;;;5069222;28;20024;-81
2023/08/09 09:38:24;;;;;;;4.00;1.40;;;;;;;;;;5074642;28;20387;-82
2023/08/09 09:40:50;;;;;;;5.20;1.45;;;;;;;;;;5074350;28;20032;-82
2023/08/09 09:43:15;;;;;;;4.63;1.50;;;;;;;;;;5073395;28;20390;-82
2023/08/09 09:45:41;;;;;;;4.10;1.27;;;;;;;;;;5067012;28;20488;-82
2023/08/09 09:48:15;;;;;;;3.00;1.23;;;;;;;;;;5077849;28;20055;-81
2023/08/09 09:50:42;;;;;;;3.00;1.42;;;;;;;;;;5073026;28;20082;-84
2023/08/09 09:53:08;;;;;;;5.15;1.63;;;;;;;;;;5083238;28;20036;-81
2023/08/09 09:55:33;;;;;;;3.83;1.20;;;;;;;;;;5058878;28;20115;-81
2023/08/09 09:57:59;;;;;;;2.35;1.23;;;;;;;;;;5090740;28;20024;-82
2023/08/09 10:00:27;;;;;;;3.28;1.20;;;;;;;;;;5072666;28;20478;-81
2023/08/09 10:02:52;;;;;;;6.10;1.25;;;;;;;;;;5082762;28;20515;-81
2023/08/09 10:05:19;;;;;;;2.55;1.20;;;;;;;;;;5075546;28;20024;-81
2023/08/09 10:07:45;;;;;;;3.70;1.40;;;;;;;;;;5063138;28;20063;-81
2023/08/09 10:10:11;;;;;;;2.97;1.30;;;;;;;;;;5082575;28;20032;-82
2023/08/09 10:12:36;;;;;;;2.70;1.25;;;;;;;;;;5055369;28;20052;-81
2023/08/09 10:15:02;;;;;;;4.15;1.20;;;;;;;;;;5065526;28;20051;-83
2023/08/09 10:17:29;;;;;;;3.72;1.48;;;;;;;;;;5081385;28;20040;-82
2023/08/09 10:19:56;;;;;;;5.13;1.30;;;;;;;;;;5071864;28;20036;-82
2023/08/09 10:22:21;;;;;;;2.70;1.13;;;;;;;;;;5073839;28;20538;-82
2023/08/09 10:24:50;;;;;;;2.28;1.20;;;;;;;;;;5078130;28;20123;-82
2023/08/09 10:27:35;;;;;;;2.10;1.15;;;;;;;;;;5076164;28;20031;-82
2023/08/09 10:30:05;;;;;;;3.60;1.30;;;;;;;;;;5077048;28;20039;-82
2023/08/09 10:32:52;;;;;;;2.90;1.17;;;;;;;;;;5069155;28;20043;-81
2023/08/09 10:35:41;;;;;;;2.67;1.13;;;;;;;;;;5060711;28;20040;-82
2023/08/09 10:38:07;;;;;;;2.00;1.08;;;;;;;;;;5071170;28;20041;-82
2023/08/09 10:40:36;;;;;;;2.30;1.40;;;;;;;;;;5049472;28;20032;-82
2023/08/09 10:43:01;;;;;;;2.38;1.20;;;;;;;;;;5072760;28;20040;-81
2023/08/09 10:45:27;;;;;;;3.60;1.40;;;;;;;;;;5055000;28;20036;-81
2023/08/09 10:47:52;;;;;;;2.83;1.30;;;;;;;;;;5072928;28;20082;-81
2023/08/09 10:50:18;;;;;;;5.68;1.88;;;;;;;;;;5071673;28;20032;-81
2023/08/09 10:52:48;;;;;;;3.00;1.30;;;;;;;;;;5075354;28;20028;-81
2023/08/09 10:55:25;;;;;;;2.88;1.00;;;;;;;;;;5081763;28;20043;-81
2023/08/09 10:57:51;;;;;;;2.50;1.27;;;;;;;;;;5076837;28;20046;-81
2023/08/09 11:00:16;;;;;;;2.80;1.20;;;;;;;;;;5059357;28;20020;-81
2023/08/09 11:02:45;;;;;;;1.92;1.20;;;;;;;;;;5079078;28;20480;-81
2023/08/09 11:05:11;;;;;;;3.22;1.30;;;;;;;;;;5078499;28;20078;-82
2023/08/09 11:07:41;;;;;;;2.58;1.27;;;;;;;;;;5071336;28;20542;-83
2023/08/09 11:10:08;;;;;;;2.08;1.30;;;;;;;;;;5072644;28;20074;-82
2023/08/09 11:12:33;;;;;;;5.97;1.40;;;;;;;;;;5072666;28;20043;-81
2023/08/09 11:14:59;;;;;;;2.50;1.10;;;;;;;;;;5072936;28;20352;-81
2023/08/09 11:17:24;;;;;;;2.45;1.30;;;;;;;;;;5071393;28;20123;-81
2023/08/09 11:19:50;;;;;;;4.28;1.40;;;;;;;;;;5072127;28;20026;-81
2023/08/09 11:22:16;;;;;;;2.28;1.30;;;;;;;;;;5072001;28;20064;-81
2023/08/09 11:24:44;;;;;;;1.40;1.02;;;;;;;;;;5073453;28;20033;-81
2023/08/09 11:27:10;;;;;;;2.30;1.40;;;;;;;;;;5071159;28;20036;-82
2023/08/09 11:29:36;;;;;;;4.25;1.13;;;;;;;;;;5071294;28;20025;-81
2023/08/09 11:32:03;;;;;;;5.60;1.63;;;;;;;;;;5071385;28;20098;-81
2023/08/09 11:34:29;;;;;;;2.53;1.25;;;;;;;;;;5054322;28;20078;-81
2023/08/09 11:36:55;;;;;;;2.05;1.05;;;;;;;;;;5072215;28;20044;-81
2023/08/09 11:39:21;;;;;;;2.80;1.23;;;;;;;;;;5071723;28;20149;-82
2023/08/09 11:41:56;;;;;;;3.88;1.38;;;;;;;;;;5054910;28;20485;-82
2023/08/09 11:44:21;;;;;;;3.15;1.30;;;;;;;;;;5070588;28;20036;-82
2023/08/09 11:46:47;;;;;;;5.13;1.38;;;;;;;;;;5071894;28;20073;-82
2023/08/09 11:49:12;;;;;;;3.30;1.27;;;;;;;;;;5070932;28;20124;-82
2023/08/09 11:51:38;;;;;;;2.10;1.20;;;;;;;;;;5073882;28;20021;-82
2023/08/09 11:54:07;;;;;;;2.92;1.33;;;;;;;;;;5074707;28;20043;-83
2023/08/09 11:56:33;;;;;;;2.55;1.30;;;;;;;;;;5074922;28;20028;-80
2023/08/09 11:58:59;;;;;;;2.30;1.23;;;;;;;;;;5084696;28;20169;-80
2023/08/09 12:01:28;;;;;;;2.58;1.20;;;;;;;;;;5085046;28;20036;-80
2023/08/09 12:03:54;;;;;;;2.90;1.00;;;;;;;;;;5074902;28;20035;-81
2023/08/09 12:06:38;;;;;;;2.53;1.10;;;;;;;;;;5091024;28;20028;-83
2023/08/09 12:09:25;;;;;;;3.75;1.30;;;;;;;;;;5081013;28;20039;-82
2023/08/09 12:11:50;;;;;;;;;;;;;;;;;;5065332;28;20055;-82
2023/08/09 12:14:16;;;;;;;2.05;1.30;;;;;;;;;;5075636;28;19920;-83
2023/08/09 12:16:41;;;;;;;2.95;1.13;;;;;;;;;;5084204;28;20116;-81
2023/08/09 12:19:07;;;;;;;3.85;1.17;;;;;;;;;;5075792;28;20108;-81
2023/08/09 12:21:32;;;;;;;2.88;1.35;;;;;;;;;;5070739;28;20578;-81
2023/08/09 12:23:58;;;;;;;2.55;1.52;;;;;;;;;;5081834;28;20037;-80
2023/08/09 12:26:23;;;;;;;3.15;1.17;;;;;;;;;;5057437;28;20434;-80
2023/08/09 12:28:48;;;;;;;4.90;1.27;;;;;;;;;;5074543;28;20086;-81
2023/08/09 12:31:14;;;;;;;1.98;1.17;;;;;;;;;;5074107;28;20081;-80
2023/08/09 12:33:39;;;;;;;2.20;1.30;;;;;;;;;;5081611;28;20399;-81
2023/08/09 12:36:05;;;;;;;2.22;1.13;;;;;;;;;;5053841;28;20491;-80
2023/08/09 12:38:31;;;;;;;2.63;1.33;;;;;;;;;;5079850;28;20146;-81
2023/08/09 12:40:56;;;;;;;7.22;1.40;;;;;;;;;;5082817;28;20041;-81
2023/08/09 12:43:22;;;;;;;1.80;0.82;;;;;;;;;;5081257;28;20055;-82
2023/08/09 12:45:47;;;;;;;3.38;1.33;;;;;;;;;;5074919;28;20041;-82
2023/08/09 12:48:14;;;;;;;4.22;1.23;;;;;;;;;;5061346;28;20032;-82
2023/08/09 12:50:40;;;;;;;2.55;1.25;;;;;;;;;;5072295;28;20044;-82
2023/08/09 12:53:06;;;;;;;2.85;1.15;;;;;;;;;;5085381;28;20024;-82
2023/08/09 12:55:32;;;;;;;3.97;1.10;;;;;;;;;;5080445;28;20115;-82
2023/08/09 12:57:57;;;;;;;3.13;1.17;;;;;;;;;;5092722;28;20078;-82
2023/08/09 13:00:23;;;;;;;3.13;0.90;;;;;;;;;;5058582;28;20036;-81
2023/08/09 13:02:48;;;;;;;2.08;0.80;;;;;;;;;;5056424;28;20029;-82
2023/08/09 13:05:15;;;;;;;3.40;1.00;;;;;;;;;;5074626;28;20031;-82
2023/08/09 13:07:41;;;;;;;2.03;0.90;;;;;;;;;;5083770;28;20027;-82
2023/08/09 13:10:06;;;;;;;2.40;0.90;;;;;;;;;;5075252;28;20078;-82
2023/08/09 13:12:32;;;;;;;4.35;1.00;;;;;;;;;;5073191;28;20115;-82
2023/08/09 13:14:58;;;;;;;1.73;0.98;;;;;;;;;;5089564;28;20119;-82
2023/08/09 13:17:23;;;;;;;5.03;1.10;;;;;;;;;;5083987;28;20040;-82
2023/08/09 13:19:49;;;;;;;3.25;1.00;;;;;;;;;;5076794;28;20032;-82
2023/08/09 13:22:14;;;;;;;3.58;0.90;;;;;;;;;;5093246;28;20024;-81
2023/08/09 13:24:40;;;;;;;3.58;1.15;;;;;;;;;;5078922;28;20032;-82
2023/08/09 13:27:05;;;;;;;1.75;1.00;;;;;;;;;;5094218;28;20020;-81
2023/08/09 13:29:31;;;;;;;1.67;0.90;;;;;;;;;;5057725;28;20037;-81
2023/08/09 13:31:56;;;;;;;3.53;1.40;;;;;;;;;;5064994;28;20024;-83
2023/08/09 13:34:22;;;;;;;3.83;1.02;;;;;;;;;;5088621;28;20085;-81
2023/08/09 13:36:47;;;;;;;4.40;0.80;;;;;;;;;;5081662;28;20035;-82
2023/08/09 13:39:13;;;;;;;1.50;0.90;;;;;;;;;;5087573;28;20028;-81
2023/08/09 13:41:38;;;;;;;2.13;0.95;;;;;;;;;;5074745;28;20020;-82
2023/08/09 13:44:07;;;;;;;5.65;1.00;;;;;;;;;;5057851;28;20078;-81
2023/08/09 13:46:33;;;;;;;1.30;0.73;;;;;;;;;;5092588;28;20143;-81
2023/08/09 13:48:58;;;;;;;1.52;0.85;;;;;;;;;;5088202;28;20093;-82
2023/08/09 13:51:24;;;;;;;4.70;1.20;;;;;;;;;;5073141;28;20028;-81
2023/08/09 13:53:52;;;;;;;2.25;1.15;;;;;;;;;;5087775;28;20062;-81
2023/08/09 13:56:18;;;;;;;1.58;0.90;;;;;;;;;;5092064;28;20032;-81
2023/08/09 13:58:43;;;;;;;2.00;1.00;;;;;;;;;;5073735;28;20044;-81
2023/08/09 14:01:08;;;;;;;5.10;1.20;;;;;;;;;;5075140;28;20031;-82
2023/08/09 14:03:35;;;;;;;4.32;0.90;;;;;;;;;;5075806;28;20032;-82
2023/08/09 14:06:01;;;;;;;3.28;1.10;;;;;;;;;;5083760;28;20090;-82
2023/08/09 14:08:27;;;;;;;3.15;1.08;;;;;;;;;;5074783;28;20121;-82
2023/08/09 14:10:52;;;;;;;2.17;1.02;;;;;;;;;;5082720;28;20024;-82
2023/08/09 14:13:18;;;;;;;2.10;1.00;;;;;;;;;;5078250;28;20127;-82
2023/08/09 14:15:44;;;;;;;3.15;1.10;;;;;;;;;;5070381;28;20048;-82
2023/08/09 14:18:09;;;;;;;4.18;1.15;;;;;;;;;;5061890;28;20032;-82
2023/08/09 14:20:35;;;;;;;4.40;1.10;;;;;;;;;;5073105;28;20032;-82
2023/08/09 14:23:00;;;;;;;2.08;1.00;;;;;;;;;;5073541;28;20040;-82
2023/08/09 14:25:26;;;;;;;2.58;0.98;;;;;;;;;;5055907;28;20116;-82
2023/08/09 14:27:52;;;;;;;2.13;0.80;;;;;;;;;;5072896;28;20040;-83
2023/08/09 14:30:17;;;;;;;2.92;1.08;;;;;;;;;;5078991;28;20070;-83
2023/08/09 14:32:43;;;;;;;3.70;0.90;;;;;;;;;;5061950;28;20039;-83
2023/08/09 14:35:09;;;;;;;1.67;1.00;;;;;;;;;;5038997;28;20029;-83
2023/08/09 14:37:35;;;;;;;3.35;1.00;;;;;;;;;;5053381;28;20036;-80